sensor_id;sensor_type;location;lat;lon;timestamp;P1;durP1;ratioP1;P2;durP2;ratioP2
16272;SDS011;8244;50.044;9.006;2023-03-01T00:04:26;20.23;;;10.37;;
16272;SDS011;8244;50.044;9.006;2023-03-01T00:09:28;19.10;;;9.63;;
16272;SDS011;8244;50.044;9.006;2023-03-01T00:14:31;15.17;;;8.97;;
16272;SDS011;8244;50.044;9.006;2023-03-01T00:19:33;18.40;;;9.60;;
16272;SDS011;8244;50.044;9.006;2023-03-01T00:24:35;15.90;;;9.77;;
16272;SDS011;8244;50.044;9.006;2023-03-01T00:29:38;19.57;;;9.93;;
16272;SDS011;8244;50.044;9.006;2023-03-01T00:34:40;19.67;;;9.80;;
16272;SDS011;8244;50.044;9.006;2023-03-01T00:39:42;17.73;;;9.60;;
16272;SDS011;8244;50.044;9.006;2023-03-01T00:44:45;16.93;;;9.90;;
16272;SDS011;8244;50.044;9.006;2023-03-01T00:49:46;18.03;;;9.80;;
16272;SDS011;8244;50.044;9.006;2023-03-01T00:54:48;19.57;;;10.40;;
16272;SDS011;8244;50.044;9.006;2023-03-01T00:59:54;16.73;;;9.93;;
16272;SDS011;8244;50.044;9.006;2023-03-01T01:04:55;19.07;;;10.00;;
16272;SDS011;8244;50.044;9.006;2023-03-01T01:09:57;19.87;;;9.97;;
16272;SDS011;8244;50.044;9.006;2023-03-01T01:15:00;16.30;;;9.40;;
16272;SDS011;8244;50.044;9.006;2023-03-01T01:20:02;18.57;;;10.03;;
16272;SDS011;8244;50.044;9.006;2023-03-01T01:25:04;21.20;;;10.73;;
16272;SDS011;8244;50.044;9.006;2023-03-01T01:30:08;20.90;;;10.67;;
16272;SDS011;8244;50.044;9.006;2023-03-01T01:35:10;19.73;;;10.63;;
16272;SDS011;8244;50.044;9.006;2023-03-01T01:40:12;19.37;;;10.37;;
16272;SDS011;8244;50.044;9.006;2023-03-01T01:45:29;18.67;;;9.93;;
16272;SDS011;8244;50.044;9.006;2023-03-01T01:50:33;17.80;;;10.23;;
16272;SDS011;8244;50.044;9.006;2023-03-01T01:55:39;18.10;;;10.07;;
16272;SDS011;8244;50.044;9.006;2023-03-01T02:00:45;16.30;;;9.33;;
16272;SDS011;8244;50.044;9.006;2023-03-01T02:05:47;18.57;;;9.97;;
16272;SDS011;8244;50.044;9.006;2023-03-01T02:10:52;17.07;;;9.80;;
16272;SDS011;8244;50.044;9.006;2023-03-01T02:15:57;18.83;;;9.80;;
16272;SDS011;8244;50.044;9.006;2023-03-01T02:21:05;17.37;;;9.83;;
16272;SDS011;8244;50.044;9.006;2023-03-01T02:26:18;19.50;;;10.20;;
16272;SDS011;8244;50.044;9.006;2023-03-01T02:31:26;19.20;;;10.83;;
16272;SDS011;8244;50.044;9.006;2023-03-01T02:36:44;18.63;;;10.53;;
16272;SDS011;8244;50.044;9.006;2023-03-01T02:41:50;18.93;;;10.00;;
16272;SDS011;8244;50.044;9.006;2023-03-01T02:46:56;18.00;;;10.67;;
16272;SDS011;8244;50.044;9.006;2023-03-01T02:52:07;22.27;;;10.57;;
16272;SDS011;8244;50.044;9.006;2023-03-01T02:57:20;18.63;;;10.60;;
16272;SDS011;8244;50.044;9.006;2023-03-01T03:02:26;18.77;;;11.30;;
16272;SDS011;8244;50.044;9.006;2023-03-01T03:07:37;19.07;;;10.90;;
16272;SDS011;8244;50.044;9.006;2023-03-01T03:12:41;16.77;;;10.20;;
16272;SDS011;8244;50.044;9.006;2023-03-01T03:17:44;20.40;;;10.87;;
16272;SDS011;8244;50.044;9.006;2023-03-01T03:22:47;20.73;;;11.60;;
16272;SDS011;8244;50.044;9.006;2023-03-01T03:27:50;19.70;;;11.20;;
16272;SDS011;8244;50.044;9.006;2023-03-01T03:32:58;20.07;;;10.97;;
16272;SDS011;8244;50.044;9.006;2023-03-01T03:38:00;24.10;;;12.40;;
16272;SDS011;8244;50.044;9.006;2023-03-01T03:43:07;19.53;;;12.00;;
16272;SDS011;8244;50.044;9.006;2023-03-01T03:48:12;23.30;;;12.13;;
16272;SDS011;8244;50.044;9.006;2023-03-01T03:53:14;21.33;;;11.70;;
16272;SDS011;8244;50.044;9.006;2023-03-01T03:58:16;22.63;;;11.37;;
16272;SDS011;8244;50.044;9.006;2023-03-01T04:03:20;22.23;;;12.67;;
16272;SDS011;8244;50.044;9.006;2023-03-01T04:08:23;24.40;;;12.07;;
16272;SDS011;8244;50.044;9.006;2023-03-01T04:13:25;23.53;;;11.67;;
16272;SDS011;8244;50.044;9.006;2023-03-01T04:18:28;22.13;;;11.80;;
16272;SDS011;8244;50.044;9.006;2023-03-01T04:23:30;22.10;;;12.40;;
16272;SDS011;8244;50.044;9.006;2023-03-01T04:28:33;21.60;;;12.53;;
16272;SDS011;8244;50.044;9.006;2023-03-01T04:33:37;20.27;;;12.40;;
16272;SDS011;8244;50.044;9.006;2023-03-01T04:38:40;23.63;;;12.87;;
16272;SDS011;8244;50.044;9.006;2023-03-01T04:43:47;24.77;;;12.73;;
16272;SDS011;8244;50.044;9.006;2023-03-01T04:48:50;20.43;;;12.20;;
16272;SDS011;8244;50.044;9.006;2023-03-01T04:53:52;21.30;;;12.47;;
16272;SDS011;8244;50.044;9.006;2023-03-01T04:58:53;23.00;;;12.17;;
16272;SDS011;8244;50.044;9.006;2023-03-01T05:03:57;24.57;;;13.87;;
16272;SDS011;8244;50.044;9.006;2023-03-01T05:09:02;22.43;;;12.77;;
16272;SDS011;8244;50.044;9.006;2023-03-01T05:14:05;21.50;;;12.53;;
16272;SDS011;8244;50.044;9.006;2023-03-01T05:19:09;22.97;;;13.10;;
16272;SDS011;8244;50.044;9.006;2023-03-01T05:24:15;22.30;;;12.27;;
16272;SDS011;8244;50.044;9.006;2023-03-01T05:29:17;21.27;;;12.90;;
16272;SDS011;8244;50.044;9.006;2023-03-01T05:34:27;22.37;;;13.67;;
16272;SDS011;8244;50.044;9.006;2023-03-01T05:39:29;21.27;;;12.57;;
16272;SDS011;8244;50.044;9.006;2023-03-01T05:44:31;23.17;;;12.23;;
16272;SDS011;8244;50.044;9.006;2023-03-01T05:49:34;20.40;;;11.77;;
16272;SDS011;8244;50.044;9.006;2023-03-01T05:54:36;22.10;;;13.17;;
16272;SDS011;8244;50.044;9.006;2023-03-01T05:59:38;24.10;;;12.47;;
16272;SDS011;8244;50.044;9.006;2023-03-01T06:04:41;23.03;;;12.60;;
16272;SDS011;8244;50.044;9.006;2023-03-01T06:09:43;20.63;;;12.37;;
16272;SDS011;8244;50.044;9.006;2023-03-01T06:14:45;19.07;;;11.60;;
16272;SDS011;8244;50.044;9.006;2023-03-01T06:19:48;23.37;;;12.13;;
16272;SDS011;8244;50.044;9.006;2023-03-01T06:24:50;23.33;;;12.20;;
16272;SDS011;8244;50.044;9.006;2023-03-01T06:29:52;20.07;;;12.30;;
16272;SDS011;8244;50.044;9.006;2023-03-01T06:34:55;20.27;;;12.07;;
16272;SDS011;8244;50.044;9.006;2023-03-01T06:39:58;21.20;;;11.93;;
16272;SDS011;8244;50.044;9.006;2023-03-01T06:45:00;23.13;;;11.57;;
16272;SDS011;8244;50.044;9.006;2023-03-01T06:50:03;21.37;;;11.40;;
16272;SDS011;8244;50.044;9.006;2023-03-01T06:55:05;23.97;;;11.63;;
16272;SDS011;8244;50.044;9.006;2023-03-01T07:00:08;23.93;;;12.23;;
16272;SDS011;8244;50.044;9.006;2023-03-01T07:05:11;20.07;;;11.53;;
16272;SDS011;8244;50.044;9.006;2023-03-01T07:10:13;20.30;;;11.90;;
16272;SDS011;8244;50.044;9.006;2023-03-01T07:15:15;20.37;;;11.10;;
16272;SDS011;8244;50.044;9.006;2023-03-01T07:20:18;19.97;;;12.00;;
16272;SDS011;8244;50.044;9.006;2023-03-01T07:25:22;18.63;;;11.17;;
16272;SDS011;8244;50.044;9.006;2023-03-01T07:30:24;21.33;;;10.90;;
16272;SDS011;8244;50.044;9.006;2023-03-01T07:35:29;18.37;;;10.53;;
16272;SDS011;8244;50.044;9.006;2023-03-01T07:40:33;18.93;;;11.33;;
16272;SDS011;8244;50.044;9.006;2023-03-01T07:45:35;19.23;;;10.63;;
16272;SDS011;8244;50.044;9.006;2023-03-01T07:50:38;21.33;;;10.97;;
16272;SDS011;8244;50.044;9.006;2023-03-01T07:55:39;19.13;;;11.30;;
16272;SDS011;8244;50.044;9.006;2023-03-01T08:00:41;18.13;;;10.70;;
16272;SDS011;8244;50.044;9.006;2023-03-01T08:05:44;20.43;;;11.37;;
16272;SDS011;8244;50.044;9.006;2023-03-01T08:10:46;20.00;;;10.17;;
16272;SDS011;8244;50.044;9.006;2023-03-01T08:15:47;15.73;;;9.55;;
16272;SDS011;8244;50.044;9.006;2023-03-01T08:20:50;16.63;;;10.15;;
16272;SDS011;8244;50.044;9.006;2023-03-01T08:25:52;17.00;;;9.75;;
16272;SDS011;8244;50.044;9.006;2023-03-01T08:30:53;19.05;;;10.98;;
16272;SDS011;8244;50.044;9.006;2023-03-01T08:36:03;17.15;;;10.20;;
16272;SDS011;8244;50.044;9.006;2023-03-01T08:41:06;17.42;;;10.05;;
16272;SDS011;8244;50.044;9.006;2023-03-01T08:46:08;20.38;;;11.85;;
16272;SDS011;8244;50.044;9.006;2023-03-01T08:51:12;18.55;;;10.50;;
16272;SDS011;8244;50.044;9.006;2023-03-01T08:56:15;18.30;;;10.68;;
16272;SDS011;8244;50.044;9.006;2023-03-01T09:01:19;15.50;;;10.10;;
16272;SDS011;8244;50.044;9.006;2023-03-01T09:06:22;16.95;;;10.70;;
16272;SDS011;8244;50.044;9.006;2023-03-01T09:11:24;17.40;;;10.93;;
16272;SDS011;8244;50.044;9.006;2023-03-01T09:16:25;16.90;;;10.57;;
16272;SDS011;8244;50.044;9.006;2023-03-01T09:21:28;17.75;;;10.15;;
16272;SDS011;8244;50.044;9.006;2023-03-01T09:26:30;17.17;;;10.82;;
16272;SDS011;8244;50.044;9.006;2023-03-01T09:31:32;17.48;;;11.68;;
16272;SDS011;8244;50.044;9.006;2023-03-01T09:36:35;19.00;;;11.15;;
16272;SDS011;8244;50.044;9.006;2023-03-01T09:41:47;18.35;;;11.52;;
16272;SDS011;8244;50.044;9.006;2023-03-01T09:46:53;18.02;;;10.88;;
16272;SDS011;8244;50.044;9.006;2023-03-01T09:51:57;19.25;;;11.15;;
16272;SDS011;8244;50.044;9.006;2023-03-01T09:57:06;16.52;;;10.77;;
16272;SDS011;8244;50.044;9.006;2023-03-01T10:02:21;16.35;;;10.98;;
16272;SDS011;8244;50.044;9.006;2023-03-01T10:07:29;18.05;;;11.80;;
16272;SDS011;8244;50.044;9.006;2023-03-01T10:12:40;18.42;;;11.82;;
16272;SDS011;8244;50.044;9.006;2023-03-01T10:17:44;16.65;;;10.65;;
16272;SDS011;8244;50.044;9.006;2023-03-01T10:22:51;16.27;;;9.80;;
16272;SDS011;8244;50.044;9.006;2023-03-01T10:27:58;16.92;;;10.57;;
16272;SDS011;8244;50.044;9.006;2023-03-01T10:33:03;16.70;;;10.98;;
16272;SDS011;8244;50.044;9.006;2023-03-01T10:38:12;16.70;;;10.52;;
16272;SDS011;8244;50.044;9.006;2023-03-01T10:43:14;17.13;;;10.52;;
16272;SDS011;8244;50.044;9.006;2023-03-01T10:48:17;15.00;;;9.82;;
16272;SDS011;8244;50.044;9.006;2023-03-01T10:53:23;15.05;;;10.32;;
16272;SDS011;8244;50.044;9.006;2023-03-01T10:58:29;16.55;;;9.43;;
16272;SDS011;8244;50.044;9.006;2023-03-01T11:03:32;13.48;;;8.98;;
16272;SDS011;8244;50.044;9.006;2023-03-01T11:08:37;14.20;;;9.25;;
16272;SDS011;8244;50.044;9.006;2023-03-01T11:13:46;16.33;;;10.18;;
16272;SDS011;8244;50.044;9.006;2023-03-01T11:24:19;14.38;;;8.98;;
16272;SDS011;8244;50.044;9.006;2023-03-01T11:29:27;18.60;;;9.68;;
16272;SDS011;8244;50.044;9.006;2023-03-01T11:34:40;15.02;;;9.60;;
16272;SDS011;8244;50.044;9.006;2023-03-01T11:39:49;14.40;;;9.10;;
16272;SDS011;8244;50.044;9.006;2023-03-01T11:44:55;15.13;;;8.85;;
16272;SDS011;8244;50.044;9.006;2023-03-01T11:50:06;14.27;;;9.43;;
16272;SDS011;8244;50.044;9.006;2023-03-01T11:55:29;13.85;;;8.90;;
16272;SDS011;8244;50.044;9.006;2023-03-01T12:00:43;12.73;;;8.35;;
16272;SDS011;8244;50.044;9.006;2023-03-01T12:05:56;13.50;;;7.85;;
16272;SDS011;8244;50.044;9.006;2023-03-01T12:11:09;15.77;;;8.25;;
16272;SDS011;8244;50.044;9.006;2023-03-01T12:16:32;12.60;;;8.32;;
16272;SDS011;8244;50.044;9.006;2023-03-01T12:21:46;14.00;;;7.38;;
16272;SDS011;8244;50.044;9.006;2023-03-01T12:27:00;13.10;;;7.35;;
16272;SDS011;8244;50.044;9.006;2023-03-01T12:32:20;12.93;;;7.70;;
16272;SDS011;8244;50.044;9.006;2023-03-01T12:37:34;12.07;;;7.03;;
16272;SDS011;8244;50.044;9.006;2023-03-01T12:42:44;12.30;;;7.53;;
16272;SDS011;8244;50.044;9.006;2023-03-01T12:48:01;11.98;;;7.53;;
16272;SDS011;8244;50.044;9.006;2023-03-01T12:53:19;14.90;;;7.90;;
16272;SDS011;8244;50.044;9.006;2023-03-01T12:58:26;12.73;;;7.65;;
16272;SDS011;8244;50.044;9.006;2023-03-01T13:03:32;11.77;;;7.30;;
16272;SDS011;8244;50.044;9.006;2023-03-01T13:08:48;13.25;;;7.63;;
16272;SDS011;8244;50.044;9.006;2023-03-01T13:19:35;14.18;;;7.80;;
16272;SDS011;8244;50.044;9.006;2023-03-01T13:24:38;11.35;;;7.88;;
16272;SDS011;8244;50.044;9.006;2023-03-01T13:29:45;11.52;;;7.30;;
16272;SDS011;8244;50.044;9.006;2023-03-01T13:34:53;17.23;;;8.77;;
16272;SDS011;8244;50.044;9.006;2023-03-01T13:39:57;13.20;;;7.38;;
16272;SDS011;8244;50.044;9.006;2023-03-01T13:45:05;13.65;;;7.57;;
16272;SDS011;8244;50.044;9.006;2023-03-01T13:50:24;10.90;;;7.60;;
16272;SDS011;8244;50.044;9.006;2023-03-01T13:55:32;11.77;;;6.70;;
16272;SDS011;8244;50.044;9.006;2023-03-01T14:00:39;13.90;;;7.53;;
16272;SDS011;8244;50.044;9.006;2023-03-01T14:05:42;12.55;;;7.15;;
16272;SDS011;8244;50.044;9.006;2023-03-01T14:11:13;12.48;;;7.55;;
16272;SDS011;8244;50.044;9.006;2023-03-01T14:16:32;13.13;;;7.82;;
16272;SDS011;8244;50.044;9.006;2023-03-01T14:21:45;12.00;;;7.65;;
16272;SDS011;8244;50.044;9.006;2023-03-01T14:26:47;16.02;;;8.13;;
16272;SDS011;8244;50.044;9.006;2023-03-01T14:31:50;13.68;;;8.88;;
16272;SDS011;8244;50.044;9.006;2023-03-01T14:36:53;13.80;;;8.40;;
16272;SDS011;8244;50.044;9.006;2023-03-01T14:41:54;12.90;;;8.63;;
16272;SDS011;8244;50.044;9.006;2023-03-01T14:46:56;14.73;;;9.35;;
16272;SDS011;8244;50.044;9.006;2023-03-01T14:52:00;13.52;;;8.63;;
16272;SDS011;8244;50.044;9.006;2023-03-01T14:57:04;13.13;;;8.32;;
16272;SDS011;8244;50.044;9.006;2023-03-01T15:02:08;14.45;;;7.88;;
16272;SDS011;8244;50.044;9.006;2023-03-01T15:07:18;14.60;;;9.07;;
16272;SDS011;8244;50.044;9.006;2023-03-01T15:12:24;13.73;;;8.65;;
16272;SDS011;8244;50.044;9.006;2023-03-01T15:17:37;15.13;;;8.77;;
16272;SDS011;8244;50.044;9.006;2023-03-01T15:22:43;14.68;;;8.93;;
16272;SDS011;8244;50.044;9.006;2023-03-01T15:27:48;16.85;;;9.13;;
16272;SDS011;8244;50.044;9.006;2023-03-01T15:38:26;15.48;;;9.23;;
16272;SDS011;8244;50.044;9.006;2023-03-01T15:43:40;13.50;;;8.48;;
16272;SDS011;8244;50.044;9.006;2023-03-01T15:48:46;14.52;;;9.35;;
16272;SDS011;8244;50.044;9.006;2023-03-01T15:53:51;15.43;;;9.27;;
16272;SDS011;8244;50.044;9.006;2023-03-01T15:58:57;15.70;;;8.95;;
16272;SDS011;8244;50.044;9.006;2023-03-01T16:03:59;19.85;;;10.73;;
16272;SDS011;8244;50.044;9.006;2023-03-01T16:09:02;17.30;;;10.65;;
16272;SDS011;8244;50.044;9.006;2023-03-01T16:14:03;16.83;;;10.55;;
16272;SDS011;8244;50.044;9.006;2023-03-01T16:19:05;18.35;;;11.10;;
16272;SDS011;8244;50.044;9.006;2023-03-01T16:24:08;18.88;;;11.32;;
16272;SDS011;8244;50.044;9.006;2023-03-01T16:29:10;18.13;;;10.38;;
16272;SDS011;8244;50.044;9.006;2023-03-01T16:34:12;19.02;;;10.50;;
16272;SDS011;8244;50.044;9.006;2023-03-01T16:39:15;18.17;;;10.90;;
16272;SDS011;8244;50.044;9.006;2023-03-01T16:44:17;17.80;;;11.38;;
16272;SDS011;8244;50.044;9.006;2023-03-01T16:49:18;19.05;;;11.48;;
16272;SDS011;8244;50.044;9.006;2023-03-01T16:54:21;16.80;;;11.35;;
16272;SDS011;8244;50.044;9.006;2023-03-01T16:59:23;18.55;;;11.13;;
16272;SDS011;8244;50.044;9.006;2023-03-01T17:04:25;21.35;;;12.40;;
16272;SDS011;8244;50.044;9.006;2023-03-01T17:09:28;22.53;;;12.73;;
16272;SDS011;8244;50.044;9.006;2023-03-01T17:14:29;20.10;;;11.33;;
16272;SDS011;8244;50.044;9.006;2023-03-01T17:19:31;18.50;;;11.00;;
16272;SDS011;8244;50.044;9.006;2023-03-01T17:24:37;20.80;;;12.40;;
16272;SDS011;8244;50.044;9.006;2023-03-01T17:29:40;19.20;;;12.10;;
16272;SDS011;8244;50.044;9.006;2023-03-01T17:34:42;19.97;;;11.43;;
16272;SDS011;8244;50.044;9.006;2023-03-01T17:39:46;20.93;;;12.20;;
16272;SDS011;8244;50.044;9.006;2023-03-01T17:44:48;20.80;;;11.37;;
16272;SDS011;8244;50.044;9.006;2023-03-01T17:49:49;21.53;;;11.97;;
16272;SDS011;8244;50.044;9.006;2023-03-01T17:54:52;19.07;;;11.30;;
16272;SDS011;8244;50.044;9.006;2023-03-01T17:59:54;18.90;;;11.30;;
16272;SDS011;8244;50.044;9.006;2023-03-01T18:04:56;19.47;;;10.87;;
16272;SDS011;8244;50.044;9.006;2023-03-01T18:10:00;19.30;;;11.13;;
16272;SDS011;8244;50.044;9.006;2023-03-01T18:15:02;19.97;;;11.80;;
16272;SDS011;8244;50.044;9.006;2023-03-01T18:20:04;19.33;;;11.33;;
16272;SDS011;8244;50.044;9.006;2023-03-01T18:25:09;20.10;;;11.93;;
16272;SDS011;8244;50.044;9.006;2023-03-01T18:30:12;20.00;;;11.07;;
16272;SDS011;8244;50.044;9.006;2023-03-01T18:35:14;18.17;;;11.23;;
16272;SDS011;8244;50.044;9.006;2023-03-01T18:40:17;18.10;;;11.17;;
16272;SDS011;8244;50.044;9.006;2023-03-01T18:45:19;19.13;;;11.00;;
16272;SDS011;8244;50.044;9.006;2023-03-01T18:50:20;18.13;;;10.80;;
16272;SDS011;8244;50.044;9.006;2023-03-01T18:55:23;21.87;;;11.80;;
16272;SDS011;8244;50.044;9.006;2023-03-01T19:00:26;24.00;;;11.67;;
16272;SDS011;8244;50.044;9.006;2023-03-01T19:05:28;20.50;;;10.83;;
16272;SDS011;8244;50.044;9.006;2023-03-01T19:10:31;20.00;;;11.20;;
16272;SDS011;8244;50.044;9.006;2023-03-01T19:15:33;20.20;;;11.70;;
16272;SDS011;8244;50.044;9.006;2023-03-01T19:20:34;23.03;;;12.33;;
16272;SDS011;8244;50.044;9.006;2023-03-01T19:25:37;18.30;;;11.00;;
16272;SDS011;8244;50.044;9.006;2023-03-01T19:30:39;20.20;;;11.50;;
16272;SDS011;8244;50.044;9.006;2023-03-01T19:35:41;18.37;;;10.50;;
16272;SDS011;8244;50.044;9.006;2023-03-01T19:40:44;20.77;;;12.17;;
16272;SDS011;8244;50.044;9.006;2023-03-01T19:45:49;22.07;;;11.37;;
16272;SDS011;8244;50.044;9.006;2023-03-01T19:50:51;17.37;;;10.53;;
16272;SDS011;8244;50.044;9.006;2023-03-01T19:55:57;18.40;;;10.80;;
16272;SDS011;8244;50.044;9.006;2023-03-01T20:00:59;19.20;;;11.03;;
16272;SDS011;8244;50.044;9.006;2023-03-01T20:06:06;21.13;;;11.80;;
16272;SDS011;8244;50.044;9.006;2023-03-01T20:11:11;25.47;;;12.10;;
16272;SDS011;8244;50.044;9.006;2023-03-01T20:16:14;20.97;;;12.33;;
16272;SDS011;8244;50.044;9.006;2023-03-01T20:21:17;26.33;;;12.23;;
16272;SDS011;8244;50.044;9.006;2023-03-01T20:26:21;18.83;;;11.00;;
16272;SDS011;8244;50.044;9.006;2023-03-01T20:31:24;22.23;;;12.53;;
16272;SDS011;8244;50.044;9.006;2023-03-01T20:36:28;23.10;;;12.87;;
16272;SDS011;8244;50.044;9.006;2023-03-01T20:41:31;22.20;;;12.50;;
16272;SDS011;8244;50.044;9.006;2023-03-01T20:46:33;23.93;;;12.70;;
16272;SDS011;8244;50.044;9.006;2023-03-01T20:51:35;23.13;;;12.93;;
16272;SDS011;8244;50.044;9.006;2023-03-01T20:56:38;22.70;;;12.67;;
16272;SDS011;8244;50.044;9.006;2023-03-01T21:01:40;23.83;;;13.17;;
16272;SDS011;8244;50.044;9.006;2023-03-01T21:06:41;23.17;;;13.00;;
16272;SDS011;8244;50.044;9.006;2023-03-01T21:11:44;22.70;;;12.47;;
16272;SDS011;8244;50.044;9.006;2023-03-01T21:16:48;24.10;;;13.27;;
16272;SDS011;8244;50.044;9.006;2023-03-01T21:21:50;22.47;;;12.77;;
16272;SDS011;8244;50.044;9.006;2023-03-01T21:26:53;23.60;;;12.73;;
16272;SDS011;8244;50.044;9.006;2023-03-01T21:31:55;23.90;;;13.53;;
16272;SDS011;8244;50.044;9.006;2023-03-01T21:36:57;23.50;;;13.03;;
16272;SDS011;8244;50.044;9.006;2023-03-01T21:42:01;21.80;;;12.70;;
16272;SDS011;8244;50.044;9.006;2023-03-01T21:47:03;20.10;;;11.80;;
16272;SDS011;8244;50.044;9.006;2023-03-01T21:52:05;22.63;;;12.37;;
16272;SDS011;8244;50.044;9.006;2023-03-01T21:57:09;22.80;;;12.17;;
16272;SDS011;8244;50.044;9.006;2023-03-01T22:02:10;22.67;;;12.93;;
16272;SDS011;8244;50.044;9.006;2023-03-01T22:07:13;22.37;;;12.17;;
16272;SDS011;8244;50.044;9.006;2023-03-01T22:12:16;22.23;;;12.13;;
16272;SDS011;8244;50.044;9.006;2023-03-01T22:17:17;23.87;;;11.80;;
16272;SDS011;8244;50.044;9.006;2023-03-01T22:22:19;20.93;;;12.33;;
16272;SDS011;8244;50.044;9.006;2023-03-01T22:27:22;22.77;;;12.43;;
16272;SDS011;8244;50.044;9.006;2023-03-01T22:32:24;22.77;;;12.23;;
16272;SDS011;8244;50.044;9.006;2023-03-01T22:37:25;23.00;;;12.17;;
16272;SDS011;8244;50.044;9.006;2023-03-01T22:42:28;25.30;;;12.97;;
16272;SDS011;8244;50.044;9.006;2023-03-01T22:47:30;23.57;;;12.60;;
16272;SDS011;8244;50.044;9.006;2023-03-01T22:52:32;23.53;;;13.03;;
16272;SDS011;8244;50.044;9.006;2023-03-01T22:57:36;22.27;;;12.53;;
16272;SDS011;8244;50.044;9.006;2023-03-01T23:02:37;24.77;;;12.67;;
16272;SDS011;8244;50.044;9.006;2023-03-01T23:07:40;22.63;;;12.60;;
16272;SDS011;8244;50.044;9.006;2023-03-01T23:12:45;22.07;;;12.93;;
16272;SDS011;8244;50.044;9.006;2023-03-01T23:17:46;21.70;;;11.83;;
16272;SDS011;8244;50.044;9.006;2023-03-01T23:22:48;23.17;;;12.83;;
16272;SDS011;8244;50.044;9.006;2023-03-01T23:27:51;22.27;;;12.00;;
16272;SDS011;8244;50.044;9.006;2023-03-01T23:32:53;22.83;;;12.67;;
16272;SDS011;8244;50.044;9.006;2023-03-01T23:37:55;22.17;;;12.67;;
16272;SDS011;8244;50.044;9.006;2023-03-01T23:42:57;22.80;;;12.40;;
16272;SDS011;8244;50.044;9.006;2023-03-01T23:47:59;24.50;;;11.93;;
16272;SDS011;8244;50.044;9.006;2023-03-01T23:53:01;21.47;;;11.57;;
16272;SDS011;8244;50.044;9.006;2023-03-01T23:58:04;22.60;;;11.27;;
